Time;durP1;ratioP1;P1;durP2;ratioP2;P2;SDS_P1;SDS_P2;PMS_P1;PMS_P2;Temp;Humidity;BMP_temperature;BMP_pressure;BME280_temperature;BME280_humidity;BME280_pressure;Samples;Min_cycle;Max_cycle;Signal;HPM_P1;HPM_P2
2022/09/18 00:00:56;;;;;;;8.30;7.40;;;;;;;12.29;100.00;98051.30;108424;1283;22296;-66
2022/09/18 00:03:23;;;;;;;9.60;7.80;;;;;;;12.29;100.00;98044.55;108504;1283;22476;-66
2022/09/18 00:05:49;;;;;;;10.90;7.90;;;;;;;12.29;100.00;98048.52;108592;1283;23223;-67
2022/09/18 00:08:16;;;;;;;11.00;6.70;;;;;;;12.28;100.00;98050.24;108454;1283;22646;-67
2022/09/18 00:10:45;;;;;;;;;;;;;;;12.28;100.00;98056.58;108452;1283;23255;-67
2022/09/18 00:13:15;;;;;;;7.60;6.80;;;;;;;12.29;100.00;98057.69;108353;1284;22627;-67
2022/09/18 00:15:42;;;;;;;7.10;6.30;;;;;;;12.30;100.00;98048.38;108460;1284;22469;-67
2022/09/18 00:18:08;;;;;;;7.20;6.00;;;;;;;12.31;100.00;98044.38;108482;1284;22604;-67
2022/09/18 00:20:35;;;;;;;9.70;5.90;;;;;;;12.32;100.00;98038.86;108429;1285;23207;-67
2022/09/18 00:23:02;;;;;;;6.50;5.60;;;;;;;12.34;100.00;98031.38;108485;1283;23878;-67
2022/09/18 00:25:30;;;;;;;7.00;5.80;;;;;;;12.36;100.00;98034.02;108395;1285;22478;-67
2022/09/18 00:27:57;;;;;;;6.30;5.70;;;;;;;12.36;100.00;98030.14;109454;1274;22438;-67
2022/09/18 00:30:24;;;;;;;5.90;5.30;;;;;;;12.37;100.00;98023.79;109413;1274;22560;-65
2022/09/18 00:32:51;;;;;;;8.30;5.40;;;;;;;12.37;100.00;98013.45;109490;1274;22516;-66
2022/09/18 00:35:18;;;;;;;8.60;5.30;;;;;;;12.39;100.00;98012.22;109375;1274;22427;-66
2022/09/18 00:37:45;;;;;;;5.70;5.00;;;;;;;12.39;100.00;98004.73;109449;1274;23535;-66
2022/09/18 00:40:12;;;;;;;6.20;5.60;;;;;;;12.39;100.00;98001.13;107296;1274;24197;-72
2022/09/18 00:42:39;;;;;;;8.20;5.50;;;;;;;12.39;100.00;97995.41;105110;1274;24471;-72
2022/09/18 00:45:09;;;;;;;6.60;6.00;;;;;;;12.38;100.00;98000.73;105196;1274;22741;-73
2022/09/18 00:47:43;;;;;;;6.80;6.00;;;;;;;12.37;100.00;97999.48;109427;1274;22605;-72
2022/09/18 00:50:10;;;;;;;6.70;5.40;;;;;;;12.37;100.00;97990.86;109486;1274;23318;-73
2022/09/18 00:52:57;;;;;;;8.10;5.50;;;;;;;12.36;100.00;97986.06;109500;1274;22625;-73
2022/09/18 00:55:27;;;;;;;7.20;6.40;;;;;;;12.34;100.00;97972.93;109482;1274;22698;-73
2022/09/18 00:57:55;;;;;;;6.10;5.50;;;;;;;12.32;100.00;97969.20;109440;1274;22405;-73
2022/09/18 01:00:22;;;;;;;6.20;5.60;;;;;;;12.29;100.00;97974.52;109174;1273;22451;-73
2022/09/18 01:02:49;;;;;;;10.70;6.70;;;;;;;12.29;100.00;97979.39;109445;1274;22572;-72
2022/09/18 01:05:23;;;;;;;8.90;7.70;;;;;;;12.29;100.00;97985.42;109418;1274;22453;-72
2022/09/18 01:08:19;;;;;;;13.10;8.10;;;;;;;12.31;100.00;97986.22;109323;1274;22654;-72
2022/09/18 01:10:58;;;;;;;12.00;8.20;;;;;;;12.31;100.00;97972.29;108997;1280;22297;-73
2022/09/18 01:14:00;;;;;;;14.80;10.10;;;;;;;12.32;100.00;97969.81;108798;1280;22466;-73
2022/09/18 01:16:31;;;;;;;15.70;12.40;;;;;;;12.29;100.00;97970.03;108290;1286;22567;-73
2022/09/18 01:19:26;;;;;;;16.30;12.20;;;;;;;12.28;100.00;97965.14;108121;1287;22506;-73
2022/09/18 01:22:23;;;;;;;16.20;11.10;;;;;;;12.28;100.00;97965.36;107782;1288;22469;-73
2022/09/18 01:24:54;;;;;;;17.30;11.60;;;;;;;12.28;100.00;97955.70;108203;1286;23519;-73
2022/09/18 01:27:42;;;;;;;16.50;13.30;;;;;;;12.25;100.00;97945.83;108284;1286;22739;-73
2022/09/18 01:30:10;;;;;;;19.00;14.70;;;;;;;12.25;100.00;97942.16;108236;1287;22293;-74
2022/09/18 01:32:40;;;;;;;20.20;15.90;;;;;;;12.23;100.00;97934.38;108272;1286;22551;-74
2022/09/18 01:35:20;;;;;;;20.80;14.40;;;;;;;12.20;100.00;97925.95;108181;1286;22545;-74
2022/09/18 01:38:25;;;;;;;22.20;15.30;;;;;;;12.20;100.00;97919.46;108042;1287;22565;-74
2022/09/18 01:41:12;;;;;;;26.40;17.10;;;;;;;12.20;100.00;97913.40;108327;1285;22529;-67
2022/09/18 01:43:39;;;;;;;24.40;17.10;;;;;;;12.19;100.00;97910.69;108077;1287;23199;-67
2022/09/18 01:46:13;;;;;;;25.70;17.50;;;;;;;12.19;100.00;97911.90;107976;1287;22586;-67
2022/09/18 01:48:45;;;;;;;22.20;14.70;;;;;;;12.16;100.00;97912.23;108868;1277;22428;-66
2022/09/18 01:51:19;;;;;;;17.00;10.90;;;;;;;12.15;100.00;97918.15;108763;1281;22551;-66
2022/09/18 01:53:47;;;;;;;12.60;9.60;;;;;;;12.15;100.00;97907.07;109175;1274;22258;-66
2022/09/18 01:56:38;;;;;;;12.20;9.10;;;;;;;12.15;100.00;97898.27;109304;1274;22437;-66
2022/09/18 01:59:10;;;;;;;11.30;7.40;;;;;;;12.15;100.00;97892.20;109314;1274;22408;-66
2022/09/18 02:01:45;;;;;;;9.00;6.60;;;;;;;12.13;100.00;97885.15;109407;1274;22435;-66
2022/09/18 02:04:15;;;;;;;9.70;6.40;;;;;;;12.11;100.00;97875.06;109483;1274;23332;-67
2022/09/18 02:06:50;;;;;;;10.90;6.40;;;;;;;12.11;100.00;97874.36;109419;1274;22460;-67
2022/09/18 02:09:17;;;;;;;7.50;6.30;;;;;;;12.11;100.00;97879.92;109246;1273;22476;-68
2022/09/18 02:11:46;;;;;;;7.70;5.80;;;;;;;12.12;100.00;97876.42;109547;1274;22480;-68
2022/09/18 02:14:16;;;;;;;7.50;6.10;;;;;;;12.12;100.00;97878.22;109354;1274;23193;-67
2022/09/18 02:17:05;;;;;;;6.80;5.70;;;;;;;12.11;100.00;97874.35;109509;1272;22532;-67
2022/09/18 02:19:35;;;;;;;6.90;6.10;;;;;;;12.11;100.00;97871.85;109430;1274;23449;-67
2022/09/18 02:22:04;;;;;;;7.60;5.50;;;;;;;12.10;100.00;97872.46;109424;1273;22445;-67
2022/09/18 02:24:32;;;;;;;9.30;5.70;;;;;;;12.08;100.00;97869.23;109568;1274;22587;-66
2022/09/18 02:26:59;;;;;;;9.40;6.00;;;;;;;12.07;100.00;97865.88;109401;1274;22449;-66
2022/09/18 02:29:26;;;;;;;7.30;6.60;;;;;;;12.07;100.00;97859.87;109596;1273;22381;-65
2022/09/18 02:31:53;;;;;;;8.10;6.50;;;;;;;12.08;100.00;97854.33;109478;1272;22502;-65
2022/09/18 02:34:23;;;;;;;7.20;6.50;;;;;;;12.08;100.00;97851.65;109457;1274;22476;-65
2022/09/18 02:37:19;;;;;;;8.00;7.20;;;;;;;12.07;100.00;97845.45;109538;1274;22465;-65
2022/09/18 02:40:25;;;;;;;7.30;6.60;;;;;;;12.07;100.00;97832.51;108693;1281;22321;-65
2022/09/18 02:43:11;;;;;;;14.30;7.10;;;;;;;12.06;100.00;97810.75;108415;1282;22441;-66
2022/09/18 02:45:47;;;;;;;12.90;6.70;;;;;;;12.06;100.00;97800.16;108518;1281;22505;-65
2022/09/18 02:48:40;;;;;;;10.10;7.00;;;;;;;12.06;100.00;97791.15;108447;1281;23507;-66
2022/09/18 02:51:28;;;;;;;8.30;7.50;;;;;;;12.04;100.00;97789.38;108494;1279;23438;-65
2022/09/18 02:54:03;;;;;;;8.50;7.40;;;;;;;12.01;100.00;97788.96;108628;1282;22753;-65
2022/09/18 02:56:53;;;;;;;8.90;8.10;;;;;;;11.98;100.00;97782.27;108394;1282;22450;-66
2022/09/18 02:59:21;;;;;;;10.50;7.60;;;;;;;11.96;100.00;97778.41;108562;1281;22482;-66
2022/09/18 03:01:54;;;;;;;12.00;8.40;;;;;;;11.94;100.00;97775.17;108425;1282;22481;-66
2022/09/18 03:04:23;;;;;;;10.30;8.50;;;;;;;11.91;100.00;97763.34;108461;1282;22485;-66
2022/09/18 03:06:57;;;;;;;14.30;7.50;;;;;;;11.91;100.00;97759.91;108560;1282;22587;-66
2022/09/18 03:09:24;;;;;;;10.50;7.90;;;;;;;11.90;100.00;97754.37;108527;1282;22611;-66
2022/09/18 03:11:52;;;;;;;10.70;7.50;;;;;;;11.88;100.00;97752.43;108458;1282;22490;-66
2022/09/18 03:14:19;;;;;;;8.40;7.00;;;;;;;11.88;100.00;97752.39;108626;1281;23183;-66
2022/09/18 03:16:46;;;;;;;11.30;6.60;;;;;;;11.87;100.00;97741.76;108934;1274;23322;-67
2022/09/18 03:19:13;;;;;;;8.10;6.30;;;;;;;11.85;100.00;97739.58;109565;1274;22445;-67
2022/09/18 03:21:41;;;;;;;7.00;6.30;;;;;;;11.81;100.00;97737.88;109516;1273;22432;-67
2022/09/18 03:24:10;;;;;;;15.50;7.80;;;;;;;11.80;100.00;97732.17;109503;1272;22488;-67
2022/09/18 03:26:39;;;;;;;7.30;6.40;;;;;;;11.79;100.00;97725.33;109530;1273;22614;-67
2022/09/18 03:29:07;;;;;;;6.30;5.70;;;;;;;11.79;100.00;97721.45;109557;1272;22503;-67
2022/09/18 03:31:36;;;;;;;7.70;6.90;;;;;;;11.79;100.00;97720.73;109549;1273;22465;-67
2022/09/18 03:34:04;;;;;;;8.00;6.20;;;;;;;11.78;100.00;97718.59;109538;1272;22505;-67
2022/09/18 03:36:30;;;;;;;6.60;6.00;;;;;;;11.77;100.00;97716.26;109505;1273;23252;-67
2022/09/18 03:38:58;;;;;;;7.10;6.40;;;;;;;11.76;100.00;97711.53;109529;1273;23178;-67
2022/09/18 03:41:25;;;;;;;7.50;5.90;;;;;;;11.74;100.00;97706.02;109462;1273;22447;-67
2022/09/18 03:43:51;;;;;;;7.00;6.10;;;;;;;11.74;100.00;97700.95;109516;1273;22542;-67
2022/09/18 03:46:22;;;;;;;7.50;5.60;;;;;;;11.75;100.00;97698.98;109550;1273;22450;-67
2022/09/18 03:48:53;;;;;;;6.80;6.10;;;;;;;11.74;100.00;97700.35;109549;1273;22451;-68
2022/09/18 03:51:21;;;;;;;7.90;5.40;;;;;;;11.73;100.00;97693.02;109447;1274;23756;-67
2022/09/18 03:53:50;;;;;;;7.40;5.70;;;;;;;11.72;100.00;97685.50;109562;1271;22614;-68
2022/09/18 03:56:27;;;;;;;6.40;5.70;;;;;;;11.72;100.00;97677.92;109540;1273;22465;-68
2022/09/18 03:59:14;;;;;;;9.60;6.60;;;;;;;11.72;100.00;97680.55;109339;1274;22244;-67
2022/09/18 04:01:59;;;;;;;7.30;6.60;;;;;;;11.72;100.00;97683.32;109331;1273;23671;-67
2022/09/18 04:04:26;;;;;;;7.90;5.80;;;;;;;11.72;100.00;97677.92;109541;1274;22461;-67
2022/09/18 04:07:02;;;;;;;6.90;5.60;;;;;;;11.71;100.00;97679.42;109514;1272;22492;-67
2022/09/18 04:09:48;;;;;;;7.20;6.50;;;;;;;11.68;100.00;97676.15;109548;1273;22454;-66
2022/09/18 04:12:14;;;;;;;;;;;;;;;11.69;100.00;97666.36;109508;1274;22508;-67
2022/09/18 04:14:43;;;;;;;9.00;5.90;;;;;;;11.69;100.00;97657.36;109597;1272;22490;-67
2022/09/18 04:17:09;;;;;;;;;;;;;;;11.68;100.00;97654.08;109535;1272;22462;-67
2022/09/18 04:19:36;;;;;;;11.10;7.50;;;;;;;11.68;100.00;97643.06;109515;1271;22450;-67
2022/09/18 04:22:03;;;;;;;10.80;7.10;;;;;;;11.64;100.00;97633.92;109402;1274;22529;-66
2022/09/18 04:24:30;;;;;;;8.60;6.80;;;;;;;11.63;100.00;97630.02;109325;1273;23313;-66
2022/09/18 04:27:00;;;;;;;6.00;5.20;;;;;;;11.63;100.00;97627.36;109365;1273;23694;-66
2022/09/18 04:29:26;;;;;;;;;;;;;;;11.62;100.00;97614.94;109567;1274;22481;-67
2022/09/18 04:31:53;;;;;;;5.30;4.80;;;;;;;11.62;100.00;97609.33;109484;1273;22442;-67
2022/09/18 04:34:20;;;;;;;7.50;6.00;;;;;;;11.60;100.00;97603.31;109463;1273;23149;-66
2022/09/18 04:36:47;;;;;;;;;;;;;;;11.59;100.00;97596.08;109424;1274;22524;-66
2022/09/18 04:39:14;;;;;;;4.40;3.70;;;;;;;11.58;100.00;97589.17;109306;1274;23335;-65
2022/09/18 04:41:41;;;;;;;5.90;4.20;;;;;;;11.58;100.00;97584.77;105290;1274;24315;-66
2022/09/18 04:44:07;;;;;;;6.00;4.10;;;;;;;11.57;100.00;97581.68;105310;1274;24999;-66
2022/09/18 04:46:35;;;;;;;5.00;4.50;;;;;;;11.57;100.00;97576.60;105245;1274;24396;-66
2022/09/18 04:49:02;;;;;;;4.90;4.40;;;;;;;11.56;100.00;97580.70;105188;1274;22559;-66
2022/09/18 04:51:28;;;;;;;4.30;3.90;;;;;;;11.57;100.00;97583.67;105299;1274;22621;-66
2022/09/18 04:53:55;;;;;;;;;;;;;;;11.57;100.00;97574.62;105298;1274;23026;-64
2022/09/18 04:56:22;;;;;;;5.80;3.50;;;;;;;11.57;100.00;97569.55;105140;1274;24256;-65
2022/09/18 04:58:51;;;;;;;4.50;3.70;;;;;;;11.56;100.00;97562.00;105319;1274;24301;-65
2022/09/18 05:01:18;;;;;;;5.50;3.50;;;;;;;11.55;100.00;97558.74;105199;1274;24356;-66
2022/09/18 05:03:45;;;;;;;3.90;3.50;;;;;;;11.54;100.00;97562.86;105202;1274;22535;-65
2022/09/18 05:06:23;;;;;;;4.20;3.80;;;;;;;11.55;100.00;97566.45;105340;1274;24340;-66
2022/09/18 05:08:50;;;;;;;6.20;3.50;;;;;;;11.54;100.00;97562.55;105126;1274;22573;-66
2022/09/18 05:11:17;;;;;;;3.80;3.40;;;;;;;11.55;100.00;97563.83;105172;1274;22701;-66
2022/09/18 05:13:47;;;;;;;3.30;3.00;;;;;;;11.54;100.00;97561.67;109573;1272;22524;-67
2022/09/18 05:16:15;;;;;;;2.90;2.70;;;;;;;11.54;100.00;97549.27;109605;1272;22442;-66
2022/09/18 05:18:51;;;;;;;4.90;3.10;;;;;;;11.52;100.00;97537.30;109437;1274;22352;-67
2022/09/18 05:21:18;;;;;;;3.90;3.20;;;;;;;11.52;100.00;97532.77;109642;1273;22447;-67
2022/09/18 05:23:45;;;;;;;3.90;3.40;;;;;;;11.52;100.00;97524.11;109409;1274;23265;-66
2022/09/18 05:26:15;;;;;;;3.20;2.90;;;;;;;11.52;100.00;97521.44;109585;1272;22445;-66
2022/09/18 05:28:42;;;;;;;;;;;;;;;11.51;100.00;97520.70;109540;1273;22629;-66
2022/09/18 05:31:08;;;;;;;3.60;3.30;;;;;;;11.50;100.00;97518.55;109583;1272;22432;-66
2022/09/18 05:33:40;;;;;;;7.00;4.90;;;;;;;11.50;100.00;97516.58;109508;1273;22462;-66
2022/09/18 05:36:07;;;;;;;6.90;5.90;;;;;;;11.50;100.00;97512.98;109541;1271;22463;-67
2022/09/18 05:38:34;;;;;;;11.00;7.70;;;;;;;11.50;100.00;97511.13;109497;1273;23401;-66
2022/09/18 05:41:01;;;;;;;13.60;7.70;;;;;;;11.49;100.00;97510.98;109586;1273;23233;-66
2022/09/18 05:43:28;;;;;;;13.10;8.50;;;;;;;11.49;100.00;97507.94;109494;1274;23252;-66
2022/09/18 05:45:55;;;;;;;15.50;9.80;;;;;;;11.48;100.00;97508.13;109532;1272;23939;-66
2022/09/18 05:48:30;;;;;;;13.20;8.80;;;;;;;11.47;100.00;97506.13;109486;1271;22511;-66
2022/09/18 05:50:57;;;;;;;;;;;;;;;11.46;100.00;97502.34;109558;1273;22503;-65
2022/09/18 05:53:25;;;;;;;11.40;9.00;;;;;;;11.44;100.00;97499.15;109534;1272;22477;-66
2022/09/18 05:56:10;;;;;;;14.10;7.40;;;;;;;11.43;100.00;97494.17;109545;1273;22907;-67
2022/09/18 05:58:37;;;;;;;8.20;5.40;;;;;;;11.43;100.00;97493.30;109459;1271;22429;-67
2022/09/18 06:01:04;;;;;;;5.00;4.50;;;;;;;11.43;100.00;97490.80;109536;1272;22472;-67
2022/09/18 06:03:48;;;;;;;6.30;5.00;;;;;;;11.44;100.00;97488.69;109519;1271;22468;-67
2022/09/18 06:06:16;;;;;;;5.60;4.90;;;;;;;11.45;100.00;97485.55;109461;1274;23300;-67
2022/09/18 06:08:43;;;;;;;6.30;4.40;;;;;;;11.47;100.00;97487.92;109540;1273;22453;-67
2022/09/18 06:11:12;;;;;;;7.60;4.70;;;;;;;11.47;100.00;97480.77;109485;1274;22502;-67
2022/09/18 06:13:39;;;;;;;5.10;4.40;;;;;;;11.47;100.00;97474.54;109534;1273;23626;-67
2022/09/18 06:16:06;;;;;;;;;;;;;;;11.47;100.00;97468.82;109490;1272;22475;-67
2022/09/18 06:18:53;;;;;;;5.40;4.50;;;;;;;11.48;100.00;97463.34;109522;1272;22467;-67
2022/09/18 06:21:20;;;;;;;6.10;5.00;;;;;;;11.49;100.00;97459.45;109418;1273;22451;-67
2022/09/18 06:23:47;;;;;;;5.30;4.70;;;;;;;11.50;100.00;97457.23;109495;1274;22472;-67
2022/09/18 06:26:22;;;;;;;6.30;4.50;;;;;;;11.51;100.00;97454.54;109577;1272;22467;-67
2022/09/18 06:28:50;;;;;;;6.10;4.90;;;;;;;11.51;100.00;97456.08;109537;1274;22442;-67
2022/09/18 06:31:17;;;;;;;5.80;5.20;;;;;;;11.51;100.00;97445.83;109549;1272;22453;-67
2022/09/18 06:34:04;;;;;;;5.80;5.20;;;;;;;11.52;100.00;97443.61;109424;1272;22439;-67
2022/09/18 06:36:30;;;;;;;7.60;5.30;;;;;;;11.52;100.00;97438.02;109533;1273;22561;-67
2022/09/18 06:39:18;;;;;;;6.60;5.60;;;;;;;11.54;100.00;97439.95;109307;1274;22562;-66
2022/09/18 06:41:46;;;;;;;6.40;5.20;;;;;;;11.54;100.00;97437.80;109427;1274;22450;-67
2022/09/18 06:44:19;;;;;;;6.40;5.30;;;;;;;11.56;100.00;97434.05;109471;1271;22510;-67
2022/09/18 06:47:00;;;;;;;6.10;5.20;;;;;;;11.57;100.00;97428.59;109215;1273;22488;-67
2022/09/18 06:49:33;;;;;;;8.00;5.40;;;;;;;11.59;100.00;97423.92;109503;1273;22512;-67
2022/09/18 06:52:02;;;;;;;7.80;5.20;;;;;;;11.61;100.00;97418.95;109499;1274;22453;-67
2022/09/18 06:54:30;;;;;;;7.00;5.40;;;;;;;11.62;100.00;97411.61;109590;1273;22457;-65
2022/09/18 06:56:59;;;;;;;6.50;4.90;;;;;;;11.63;100.00;97415.79;109556;1271;22601;-66
2022/09/18 06:59:27;;;;;;;5.20;4.70;;;;;;;11.66;100.00;97426.04;109509;1274;22494;-66
2022/09/18 07:01:54;;;;;;;;;;;;;;;11.69;100.00;97433.19;109576;1271;23417;-66
2022/09/18 07:04:45;;;;;;;6.80;6.10;;;;;;;11.72;100.00;97435.61;109368;1273;22564;-67
2022/09/18 07:07:14;;;;;;;7.60;6.90;;;;;;;11.75;100.00;97430.36;109428;1272;22462;-67
2022/09/18 07:09:41;;;;;;;6.80;6.10;;;;;;;11.76;100.00;97430.29;109414;1274;22485;-67
2022/09/18 07:12:14;;;;;;;6.90;6.20;;;;;;;11.77;100.00;97431.65;109531;1273;22453;-67
2022/09/18 07:14:46;;;;;;;7.20;6.10;;;;;;;11.77;100.00;97424.65;109544;1273;23555;-66
2022/09/18 07:17:13;;;;;;;6.90;6.30;;;;;;;11.78;100.00;97418.63;109509;1272;23234;-67
2022/09/18 07:19:46;;;;;;;7.00;6.30;;;;;;;11.79;100.00;97408.67;109504;1272;22580;-67
2022/09/18 07:22:14;;;;;;;6.60;5.80;;;;;;;11.81;100.00;97403.42;109511;1273;22462;-67
2022/09/18 07:24:43;;;;;;;6.90;6.20;;;;;;;11.84;100.00;97397.30;109550;1273;22696;-67
2022/09/18 07:27:10;;;;;;;6.20;5.60;;;;;;;11.87;100.00;97384.96;109464;1271;22472;-65
2022/09/18 07:29:39;;;;;;;7.30;6.40;;;;;;;11.89;100.00;97371.36;109586;1271;22968;-65
2022/09/18 07:32:05;;;;;;;;;;;;;;;11.90;100.00;97366.80;109461;1274;22496;-66
2022/09/18 07:34:32;;;;;;;7.00;6.30;;;;;;;11.92;100.00;97376.83;109388;1274;22619;-65
2022/09/18 07:36:59;;;;;;;7.50;6.40;;;;;;;11.95;100.00;97372.28;109431;1273;22519;-65
2022/09/18 07:39:26;;;;;;;6.80;6.00;;;;;;;11.98;100.00;97366.64;109483;1271;23443;-66
2022/09/18 07:42:11;;;;;;;5.70;5.10;;;;;;;12.01;100.00;97364.38;109611;1273;23230;-66
2022/09/18 07:44:39;;;;;;;6.20;5.00;;;;;;;12.04;100.00;97363.20;109557;1271;22469;-66
2022/09/18 07:47:06;;;;;;;7.00;5.40;;;;;;;12.09;100.00;97366.83;109484;1274;22487;-66
2022/09/18 07:49:33;;;;;;;5.10;4.60;;;;;;;12.12;100.00;97366.27;109518;1273;22602;-66
2022/09/18 07:52:00;;;;;;;5.20;4.70;;;;;;;12.15;100.00;97366.72;109551;1271;22537;-66
2022/09/18 07:54:28;;;;;;;8.40;4.20;;;;;;;12.19;100.00;97374.63;109460;1274;23230;-66
2022/09/18 07:57:03;;;;;;;4.70;4.10;;;;;;;12.21;100.00;97373.92;109454;1271;22538;-66
2022/09/18 07:59:38;;;;;;;6.10;4.20;;;;;;;12.23;100.00;97381.23;109467;1272;22406;-66
2022/09/18 08:02:05;;;;;;;5.50;4.10;;;;;;;12.27;100.00;97381.75;109334;1274;23496;-67
2022/09/18 08:04:34;;;;;;;4.70;4.20;;;;;;;12.29;100.00;97387.70;109549;1273;22566;-66
2022/09/18 08:07:18;;;;;;;4.60;3.90;;;;;;;12.33;100.00;97386.86;109569;1271;23228;-66
2022/09/18 08:09:51;;;;;;;6.50;4.00;;;;;;;12.36;100.00;97392.34;109565;1272;22515;-66
2022/09/18 08:12:47;;;;;;;8.00;5.80;;;;;;;12.41;100.00;97389.17;109562;1271;22575;-67
2022/09/18 08:15:24;;;;;;;10.00;6.60;;;;;;;12.45;100.00;97386.92;109506;1273;22455;-66
2022/09/18 08:18:10;;;;;;;4.80;4.00;;;;;;;12.48;100.00;97383.11;109596;1271;22439;-67
2022/09/18 08:20:55;;;;;;;6.00;3.70;;;;;;;12.49;100.00;97380.64;109532;1273;23771;-67
2022/09/18 08:23:37;;;;;;;6.30;4.50;;;;;;;12.48;100.00;97372.34;109497;1274;22510;-66
2022/09/18 08:26:04;;;;;;;5.80;3.60;;;;;;;12.49;100.00;97359.17;109455;1273;22458;-67
2022/09/18 08:28:31;;;;;;;6.20;5.00;;;;;;;12.49;100.00;97351.84;109388;1273;22474;-67
2022/09/18 08:31:00;;;;;;;4.90;4.40;;;;;;;12.49;100.00;97347.02;109430;1273;23101;-66
2022/09/18 08:33:27;;;;;;;7.20;4.70;;;;;;;12.50;100.00;97344.48;109299;1273;22499;-67
2022/09/18 08:35:54;;;;;;;6.60;5.30;;;;;;;12.51;100.00;97348.73;108842;1274;23964;-66
2022/09/18 08:38:29;;;;;;;5.30;4.80;;;;;;;12.52;100.00;97347.25;108960;1277;22503;-66
2022/09/18 08:41:27;;;;;;;6.30;5.70;;;;;;;12.54;100.00;97346.45;108767;1278;139197;-67
2022/09/18 08:44:23;;;;;;;5.50;5.00;;;;;;;12.55;100.00;97338.45;108898;1279;22637;-66
2022/09/18 08:47:06;;;;;;;4.60;3.60;;;;;;;12.59;100.00;97338.29;108817;1277;139382;-66
2022/09/18 08:49:36;;;;;;;7.00;4.40;;;;;;;12.62;100.00;97336.98;108930;1277;22447;-66
2022/09/18 08:52:15;;;;;;;3.90;3.50;;;;;;;12.65;100.00;97331.95;108850;1278;22462;-67
2022/09/18 08:55:03;;;;;;;4.20;3.80;;;;;;;12.67;100.00;97325.82;108819;1277;138469;-66
2022/09/18 08:58:14;;;;;;;5.30;4.80;;;;;;;12.73;100.00;97312.38;108793;1279;22460;-67
2022/09/18 09:00:47;;;;;;;4.30;3.90;;;;;;;12.79;100.00;97312.77;108827;1277;139649;-66
2022/09/18 09:03:48;;;;;;;;;;;;;;;12.81;100.00;97314.14;109098;1277;22504;-67
2022/09/18 09:06:27;;;;;;;3.50;3.20;;;;;;;12.86;100.00;97313.53;108801;1277;125196;-66
2022/09/18 09:09:15;;;;;;;3.60;3.30;;;;;;;12.90;100.00;97308.34;108875;1279;22530;-67
2022/09/18 09:12:05;;;;;;;3.90;3.20;;;;;;;12.96;100.00;97302.29;108947;1279;139370;-67
2022/09/18 09:14:44;;;;;;;3.50;3.20;;;;;;;13.01;100.00;97294.11;108973;1278;22538;-67
2022/09/18 09:18:01;;;;;;;2.80;2.60;;;;;;;13.04;100.00;97294.56;108968;1277;138873;-67
2022/09/18 09:20:36;;;;;;;4.10;3.40;;;;;;;13.09;100.00;97288.82;108936;1278;22518;-67
2022/09/18 09:23:44;;;;;;;3.70;3.40;;;;;;;13.15;100.00;97285.52;108978;1276;138615;-67
2022/09/18 09:26:22;;;;;;;3.20;2.90;;;;;;;13.18;100.00;97286.07;109169;1276;22475;-66
2022/09/18 09:29:17;;;;;;;3.20;2.90;;;;;;;13.20;100.00;97285.23;109043;1276;140557;-66
2022/09/18 09:32:33;;;;;;;3.40;3.10;;;;;;;13.23;100.00;97278.33;109168;1276;23143;-66
2022/09/18 09:35:24;;;;;;;3.90;3.50;;;;;;;13.29;100.00;97270.41;108814;1277;138321;-66
2022/09/18 09:38:38;;;;;;;3.70;3.10;;;;;;;13.30;100.00;97268.50;109269;1276;23203;-65
2022/09/18 09:41:30;;;;;;;3.40;3.10;;;;;;;13.30;100.00;97272.48;109185;1275;138720;-65
2022/09/18 09:44:28;;;;;;;7.30;3.30;;;;;;;13.32;100.00;97272.52;109227;1276;22657;-67
2022/09/18 09:47:04;;;;;;;4.50;3.70;;;;;;;13.35;100.00;97274.94;109028;1276;138654;-66
2022/09/18 09:49:50;;;;;;;3.90;3.60;;;;;;;13.36;100.00;97277.61;109080;1276;22442;-66
2022/09/18 09:52:23;;;;;;;4.70;4.30;;;;;;;13.40;100.00;97278.86;109106;1276;22446;-66
2022/09/18 09:55:21;;;;;;;7.40;4.60;;;;;;;13.43;100.00;97281.74;108993;1276;138394;-65
2022/09/18 09:58:11;;;;;;;5.10;4.70;;;;;;;13.43;100.00;97281.52;109097;1276;22540;-65
2022/09/18 10:00:56;;;;;;;5.90;5.30;;;;;;;13.46;100.00;97279.22;108986;1279;138753;-65
2022/09/18 10:04:02;;;;;;;6.20;5.60;;;;;;;13.49;100.00;97279.23;109154;1276;23224;-65
2022/09/18 10:06:56;;;;;;;7.60;5.90;;;;;;;13.51;100.00;97273.79;108366;1282;138353;-65
2022/09/18 10:09:47;;;;;;;6.70;5.90;;;;;;;13.54;100.00;97273.52;107760;1288;22592;-65
2022/09/18 10:12:25;;;;;;;7.60;6.40;;;;;;;13.59;100.00;97275.02;107677;1290;140245;-65
2022/09/18 10:14:54;;;;;;;8.00;7.20;;;;;;;13.62;100.00;97272.73;107623;1290;22656;-65
2022/09/18 10:17:20;;;;;;;8.00;7.30;;;;;;;13.64;100.00;97271.86;107405;1290;138226;-65
2022/09/18 10:19:48;;;;;;;9.50;7.60;;;;;;;13.64;100.00;97276.11;107776;1290;22294;-65
2022/09/18 10:22:17;;;;;;;10.80;8.20;;;;;;;13.65;100.00;97282.00;107805;1290;22476;-65
2022/09/18 10:24:57;;;;;;;9.10;8.20;;;;;;;13.66;100.00;97279.70;107615;1290;139709;-65
2022/09/18 10:27:24;;;;;;;8.30;7.40;;;;;;;13.68;100.00;97277.21;107792;1289;22555;-65
2022/09/18 10:29:52;;;;;;;9.60;8.50;;;;;;;13.70;100.00;97278.77;107687;1290;138961;-65
2022/09/18 10:32:35;;;;;;;9.40;7.70;;;;;;;13.71;100.00;97274.56;107755;1288;22531;-65
2022/09/18 10:35:41;;;;;;;7.60;6.90;;;;;;;13.72;100.00;97272.02;107641;1290;138763;-65
2022/09/18 10:38:32;;;;;;;8.80;7.50;;;;;;;13.75;100.00;97277.84;106744;1289;1402213;-65
2022/09/18 10:42:02;;;;;;;8.90;8.10;;;;;;;13.80;100.00;97265.40;101859;1309;545126;-65
2022/09/18 10:44:40;;;;;;;9.20;8.30;;;;;;;13.81;100.00;97254.23;108171;1287;22559;-66
2022/09/18 10:47:15;;;;;;;8.90;8.00;;;;;;;13.82;100.00;97256.29;108078;1287;138792;-66
2022/09/18 10:50:01;;;;;;;8.00;7.30;;;;;;;13.80;100.00;97265.08;108991;1280;22538;-66
2022/09/18 10:52:42;;;;;;;7.50;6.80;;;;;;;13.80;100.00;97263.28;109040;1280;22480;-67
2022/09/18 10:55:12;;;;;;;8.90;8.00;;;;;;;13.80;100.00;97264.05;107839;1277;1362350;-65
2022/09/18 10:57:47;;;;;;;8.50;7.60;;;;;;;13.81;100.00;97263.69;109025;1277;22424;-66
2022/09/18 11:00:20;;;;;;;10.30;8.20;;;;;;;13.81;100.00;97258.39;108919;1277;139380;-66
2022/09/18 11:02:51;;;;;;;8.30;7.50;;;;;;;13.83;100.00;97246.39;109055;1279;22443;-66
2022/09/18 11:05:26;;;;;;;8.90;7.50;;;;;;;13.84;100.00;97242.73;108756;1280;137838;-66
2022/09/18 11:07:55;;;;;;;8.60;7.70;;;;;;;13.84;100.00;97239.40;108740;1279;22391;-66
2022/09/18 11:10:23;;;;;;;8.50;7.70;;;;;;;13.86;100.00;97240.48;108534;1279;22462;-67
2022/09/18 11:12:55;;;;;;;8.50;7.60;;;;;;;13.88;100.00;97234.92;108721;1279;139869;-66
2022/09/18 11:15:33;;;;;;;10.20;8.90;;;;;;;13.91;100.00;97227.27;108835;1280;22485;-66
2022/09/18 11:18:02;;;;;;;9.10;8.20;;;;;;;13.94;100.00;97223.10;108906;1279;138484;-66
2022/09/18 11:20:31;;;;;;;10.60;9.20;;;;;;;13.97;100.00;97219.22;108740;1279;23130;-66
2022/09/18 11:23:27;;;;;;;10.20;8.90;;;;;;;13.99;100.00;97215.63;108567;1277;138127;-66
2022/09/18 11:26:18;;;;;;;14.40;12.40;;;;;;;14.00;100.00;97211.95;108812;1277;22435;-66
2022/09/18 11:29:02;;;;;;;13.80;12.20;;;;;;;14.02;100.00;97208.98;108886;1279;139254;-66
2022/09/18 11:31:41;;;;;;;13.20;11.00;;;;;;;14.04;100.00;97212.11;108640;1279;22475;-66
2022/09/18 11:34:26;;;;;;;11.40;10.00;;;;;;;14.06;100.00;97201.40;108625;1279;22547;-66
2022/09/18 11:36:56;;;;;;;12.80;9.70;;;;;;;14.08;100.00;97196.72;108736;1280;138615;-65
2022/09/18 11:39:31;;;;;;;10.30;9.00;;;;;;;14.09;100.00;97190.33;108943;1279;22551;-69
2022/09/18 11:42:00;;;;;;;9.20;8.30;;;;;;;14.11;100.00;97181.55;108892;1279;138836;-70
2022/09/18 11:44:30;;;;;;;8.90;8.00;;;;;;;14.11;100.00;97179.06;108858;1279;22545;-70
2022/09/18 11:46:58;;;;;;;11.20;7.90;;;;;;;14.11;100.00;97181.16;108656;1279;139073;-70
2022/09/18 11:49:29;;;;;;;9.40;8.50;;;;;;;14.11;100.00;97173.50;108778;1279;22509;-71
2022/09/18 11:52:04;;;;;;;9.30;8.40;;;;;;;14.13;100.00;97168.11;108623;1278;23625;-70